Flight Briefing for CPX209

Departure Arrival
Los Angeles International Airport (KLAX)
Click to view FAA NOTAMS
Miami International Airport (KMIA)
Click to view FAA NOTAMS
Departure Time Arrival Time
1100 UTC 1545 UTC
Aircraft Distance
B767-300BDSF 2091nm
Departure METAR Arrival METAR
KLAX 260953Z 17004KT 10SM FEW012 FEW220 13/11 A3003 RMK AO2 SLP167 T01280111 KMIA 260953Z 29003KT 10SM FEW020 21/17 A3000 RMK AO2 SLP160 T02060172
Suggested Route
DOTSS2 CNERY BLH J65 KOFFA J169 TFD J50 ELP J2 JCT J86 LEV Q102 BAGGS SSCOT5


View recent IFR Routes data
Notes



Charts and Procedures

Charts for KLAX
No chart available
Charts for KMIA
No chart available

Windy.com Weather Map